Time;durP1;ratioP1;P1;durP2;ratioP2;P2;SDS_P1;SDS_P2;PMS_P1;PMS_P2;Temp;Humidity;BMP_temperature;BMP_pressure;BME280_temperature;BME280_humidity;BME280_pressure;Samples;Min_cycle;Max_cycle;Signal;HPM_P1;HPM_P2
2022/10/13 00:01:07;;;;;;;18.85;13.38;;;14.50;95.90;;;;;;5114203;28;20031;-83
2022/10/13 00:03:33;;;;;;;15.95;12.30;;;14.00;99.70;;;;;;5102803;28;20047;-83
2022/10/13 00:05:58;;;;;;;17.20;13.05;;;13.80;94.20;;;;;;5093581;28;20494;-83
2022/10/13 00:08:25;;;;;;;17.23;12.70;;;13.90;93.30;;;;;;5093572;28;20047;-83
2022/10/13 00:10:51;;;;;;;18.92;13.63;;;13.80;96.70;;;;;;5093409;28;20036;-84
2022/10/13 00:13:18;;;;;;;21.17;14.48;;;13.90;99.30;;;;;;5093670;28;20035;-83
2022/10/13 00:15:45;;;;;;;17.08;13.93;;;13.80;99.50;;;;;;5093344;28;20047;-84
2022/10/13 00:18:11;;;;;;;20.95;15.10;;;13.70;99.90;;;;;;5093567;28;20056;-83
2022/10/13 00:20:46;;;;;;;19.67;14.73;;;13.80;99.90;;;;;;5093465;28;20113;-83
2022/10/13 00:23:15;;;;;;;19.73;14.20;;;13.70;99.90;;;;;;5093057;28;20573;-84
2022/10/13 00:25:43;;;;;;;20.23;14.48;;;14.10;99.90;;;;;;5093758;28;20055;-83
2022/10/13 00:28:09;;;;;;;23.27;14.68;;;14.20;99.90;;;;;;5093457;28;20036;-83
2022/10/13 00:30:35;;;;;;;23.40;14.98;;;13.80;96.70;;;;;;5095130;28;20020;-83
2022/10/13 00:33:01;;;;;;;17.98;14.57;;;13.80;96.50;;;;;;5113574;28;20077;-82
2022/10/13 00:35:27;;;;;;;23.35;14.57;;;13.90;98.30;;;;;;5113796;28;20028;-83
2022/10/13 00:37:52;;;;;;;18.90;14.40;;;13.80;99.90;;;;;;5113263;28;20058;-84
2022/10/13 00:40:18;;;;;;;20.02;15.02;;;13.90;97.50;;;;;;5113656;28;20016;-83
2022/10/13 00:42:44;;;;;;;18.38;14.98;;;14.00;99.90;;;;;;5113856;28;20055;-84
2022/10/13 00:45:28;;;;;;;16.95;14.23;;;13.80;99.70;;;;;;5113314;28;20099;-83
2022/10/13 00:47:57;;;;;;;17.83;13.68;;;13.70;99.70;;;;;;5113114;28;20185;-83
2022/10/13 00:50:30;;;;;;;18.23;13.35;;;13.70;99.90;;;;;;5113338;28;20081;-84
2022/10/13 00:52:58;;;;;;;24.15;15.43;;;13.70;99.90;;;;;;5112548;28;20082;-84
2022/10/13 00:55:28;;;;;;;20.48;13.77;;;13.50;99.90;;;;;;5113239;28;20012;-83
2022/10/13 00:57:57;;;;;;;21.50;14.73;;;13.60;99.90;;;;;;5113185;28;20028;-83
2022/10/13 01:00:24;;;;;;;18.33;14.52;;;13.60;99.90;;;;;;5113098;28;20088;-82
2022/10/13 01:02:50;;;;;;;18.10;13.55;;;13.30;99.90;;;;;;5089089;28;20032;-83
2022/10/13 01:05:17;;;;;;;19.95;13.27;;;13.50;97.10;;;;;;5093108;28;20024;-83
2022/10/13 01:07:47;;;;;;;20.67;13.52;;;13.60;99.90;;;;;;5092207;28;20027;-83
2022/10/13 01:10:22;;;;;;;19.90;12.93;;;13.40;99.90;;;;;;5092523;28;20041;-84
2022/10/13 01:13:16;;;;;;;17.85;13.25;;;13.30;99.90;;;;;;5092551;28;20028;-83
2022/10/13 01:15:59;;;;;;;15.90;12.75;;;13.50;99.90;;;;;;5092534;28;20019;-83
2022/10/13 01:18:47;;;;;;;21.35;14.20;;;13.60;99.90;;;;;;5092574;28;20020;-83
2022/10/13 01:21:12;;;;;;;15.20;12.93;;;13.50;99.90;;;;;;5092166;28;20391;-83
2022/10/13 01:23:54;;;;;;;18.60;12.93;;;13.50;99.90;;;;;;5092409;28;20032;-83
2022/10/13 01:26:22;;;;;;;15.63;12.98;;;13.40;99.90;;;;;;5092600;28;20081;-83
2022/10/13 01:29:14;;;;;;;17.83;13.02;;;13.30;99.90;;;;;;5092338;28;20071;-83
2022/10/13 01:31:49;;;;;;;19.15;14.15;;;13.30;99.90;;;;;;5103745;28;20049;-84
2022/10/13 01:34:22;;;;;;;19.25;14.77;;;13.40;99.90;;;;;;5112553;28;20030;-82
2022/10/13 01:36:57;;;;;;;16.98;13.82;;;13.50;99.90;;;;;;5112536;28;20024;-82
2022/10/13 01:39:34;;;;;;;19.80;14.77;;;13.40;99.90;;;;;;5112618;28;20049;-83
2022/10/13 01:42:23;;;;;;;17.67;14.25;;;13.30;99.90;;;;;;5112496;28;20119;-82
2022/10/13 01:44:57;;;;;;;23.35;14.73;;;13.30;99.90;;;;;;5112663;28;20024;-83
2022/10/13 01:47:25;;;;;;;18.17;14.02;;;13.10;99.90;;;;;;5112517;28;20020;-83
2022/10/13 01:49:53;;;;;;;22.23;14.70;;;13.10;99.90;;;;;;5112555;28;20502;-83
2022/10/13 01:52:22;;;;;;;17.67;13.43;;;13.20;99.90;;;;;;5112400;28;20038;-83
2022/10/13 01:54:51;;;;;;;24.65;14.45;;;13.40;99.90;;;;;;5112721;28;20040;-84
2022/10/13 01:57:33;;;;;;;17.55;13.80;;;13.10;99.90;;;;;;5112377;28;20099;-83
2022/10/13 02:00:15;;;;;;;19.67;13.70;;;12.90;99.90;;;;;;5112408;28;20475;-82
2022/10/13 02:02:41;;;;;;;17.70;13.25;;;12.80;99.90;;;;;;5113503;28;20028;-82
2022/10/13 02:05:42;;;;;;;19.48;14.82;;;13.20;99.90;;;;;;5116296;28;20559;-84
2022/10/13 02:08:21;;;;;;;18.23;14.35;;;12.80;99.90;;;;;;5116345;28;20586;-83
2022/10/13 02:10:52;;;;;;;19.70;14.95;;;13.10;99.90;;;;;;5116543;28;20518;-83
2022/10/13 02:13:22;;;;;;;23.67;15.48;;;13.00;99.90;;;;;;5116524;28;20049;-83
2022/10/13 02:15:52;;;;;;;25.30;15.48;;;13.00;99.90;;;;;;5116328;28;20016;-83
2022/10/13 02:18:22;;;;;;;24.95;15.75;;;13.10;99.90;;;;;;5115963;28;20032;-83
2022/10/13 02:20:49;;;;;;;24.08;15.98;;;12.90;99.90;;;;;;5116329;28;20016;-83
2022/10/13 02:23:17;;;;;;;24.95;17.20;;;13.30;99.90;;;;;;5115980;28;20091;-83
2022/10/13 02:25:43;;;;;;;25.38;16.10;;;13.00;99.90;;;;;;5115914;28;20541;-83
2022/10/13 02:28:09;;;;;;;25.90;17.13;;;12.70;99.90;;;;;;5116368;28;20080;-83
2022/10/13 02:30:38;;;;;;;25.35;17.15;;;12.60;99.90;;;;;;5115959;28;20020;-83
2022/10/13 02:33:04;;;;;;;28.45;17.35;;;12.50;99.90;;;;;;5115525;28;20034;-83
2022/10/13 02:35:31;;;;;;;27.80;17.52;;;12.50;99.90;;;;;;5115929;28;20095;-83
2022/10/13 02:37:57;;;;;;;26.92;16.33;;;12.40;99.90;;;;;;5115852;28;20032;-83
2022/10/13 02:40:24;;;;;;;25.05;17.20;;;12.40;99.90;;;;;;5097846;28;20051;-83
2022/10/13 02:42:49;;;;;;;25.65;16.85;;;12.40;99.90;;;;;;5115792;28;20024;-83
2022/10/13 02:45:16;;;;;;;23.60;16.08;;;12.70;99.90;;;;;;5115809;28;20067;-83
2022/10/13 02:47:42;;;;;;;18.70;15.00;;;12.70;99.90;;;;;;5115193;28;20187;-83
2022/10/13 02:50:08;;;;;;;20.95;16.45;;;12.50;99.90;;;;;;5116106;28;20028;-83
2022/10/13 02:52:33;;;;;;;21.95;16.20;;;12.60;99.90;;;;;;5115562;28;20020;-83
2022/10/13 02:54:59;;;;;;;22.98;15.55;;;12.60;99.90;;;;;;5115381;28;20604;-83
2022/10/13 02:57:25;;;;;;;20.98;14.82;;;12.70;99.90;;;;;;5115625;28;20066;-83
2022/10/13 02:59:50;;;;;;;21.58;15.35;;;13.20;99.90;;;;;;5115488;28;20089;-83
2022/10/13 03:02:16;;;;;;;20.42;15.38;;;12.70;99.90;;;;;;5114289;28;20542;-83
2022/10/13 03:04:42;;;;;;;22.48;14.98;;;13.10;99.90;;;;;;5095135;28;20020;-83
2022/10/13 03:07:08;;;;;;;24.92;15.48;;;12.70;99.90;;;;;;5094899;28;20106;-83
2022/10/13 03:09:33;;;;;;;21.15;15.63;;;13.10;99.90;;;;;;5094902;28;20020;-83
2022/10/13 03:11:59;;;;;;;24.88;15.57;;;12.60;99.90;;;;;;5094585;28;20127;-83
2022/10/13 03:14:25;;;;;;;23.27;16.40;;;12.90;99.90;;;;;;5094014;28;20063;-84
2022/10/13 03:16:50;;;;;;;22.17;16.67;;;12.60;99.90;;;;;;5094422;28;20103;-83
2022/10/13 03:19:16;;;;;;;23.95;16.52;;;12.90;99.90;;;;;;5094679;28;20388;-84
2022/10/13 03:21:42;;;;;;;26.05;18.20;;;12.80;99.90;;;;;;5094627;28;20024;-83
2022/10/13 03:24:07;;;;;;;28.75;18.83;;;12.70;99.90;;;;;;5094465;28;20107;-83
2022/10/13 03:26:34;;;;;;;25.90;19.52;;;12.60;99.90;;;;;;5094963;28;20024;-84
2022/10/13 03:29:00;;;;;;;28.55;20.15;;;12.70;99.90;;;;;;5094274;28;20040;-83
2022/10/13 03:31:26;;;;;;;26.75;19.92;;;12.80;99.90;;;;;;5103477;28;20026;-82
2022/10/13 03:33:52;;;;;;;26.20;20.00;;;13.10;99.90;;;;;;5114766;28;20138;-83
2022/10/13 03:36:17;;;;;;;30.70;20.45;;;12.80;99.90;;;;;;5114599;28;20051;-83
2022/10/13 03:38:43;;;;;;;28.67;19.85;;;12.70;99.90;;;;;;5114251;28;20106;-86
2022/10/13 03:41:15;;;;;;;26.17;20.10;;;12.70;99.90;;;;;;5114302;28;20032;-83
2022/10/13 03:43:42;;;;;;;29.10;20.30;;;12.60;99.90;;;;;;5114674;28;20050;-83
2022/10/13 03:46:10;;;;;;;28.88;20.73;;;12.70;99.90;;;;;;5114504;28;20020;-83
2022/10/13 03:48:36;;;;;;;27.90;19.98;;;12.70;99.90;;;;;;5114378;28;20421;-84
2022/10/13 03:51:07;;;;;;;28.55;20.40;;;13.00;99.90;;;;;;5114241;28;20459;-83
2022/10/13 03:53:33;;;;;;;28.35;18.75;;;13.10;99.90;;;;;;5114360;28;20058;-83
2022/10/13 03:55:58;;;;;;;27.30;18.88;;;13.00;99.90;;;;;;5114425;28;20055;-83
2022/10/13 03:58:27;;;;;;;24.70;18.95;;;13.00;99.90;;;;;;5114323;28;20046;-83
2022/10/13 04:00:53;;;;;;;25.63;19.45;;;13.00;99.90;;;;;;5114254;28;20019;-84
2022/10/13 04:03:18;;;;;;;29.02;19.80;;;13.10;99.90;;;;;;5104180;28;20050;-83
2022/10/13 04:05:44;;;;;;;28.60;19.30;;;13.10;99.90;;;;;;5093767;28;20032;-83
2022/10/13 04:08:11;;;;;;;29.45;19.67;;;13.10;99.90;;;;;;5094093;28;20077;-83
2022/10/13 04:10:37;;;;;;;36.33;20.05;;;13.10;99.90;;;;;;5093419;28;20055;-83
2022/10/13 04:13:02;;;;;;;35.08;19.60;;;13.10;99.90;;;;;;5093539;28;20472;-82
2022/10/13 04:15:28;;;;;;;38.78;19.92;;;13.10;99.90;;;;;;5093273;28;20383;-82
2022/10/13 04:17:54;;;;;;;31.02;19.15;;;13.10;99.90;;;;;;5093472;28;20039;-83
2022/10/13 04:20:20;;;;;;;31.23;19.77;;;13.10;99.90;;;;;;5093163;28;20435;-83
2022/10/13 04:22:45;;;;;;;33.40;20.08;;;13.10;99.90;;;;;;5092873;28;20055;-83
2022/10/13 04:25:11;;;;;;;34.70;20.42;;;13.40;99.90;;;;;;5093400;28;20020;-83
2022/10/13 04:27:38;;;;;;;28.58;19.98;;;13.20;99.90;;;;;;5092418;28;20388;-82
2022/10/13 04:30:05;;;;;;;29.25;19.60;;;13.20;99.90;;;;;;5093508;28;20032;-83
2022/10/13 04:32:31;;;;;;;27.33;19.90;;;13.20;99.90;;;;;;5111488;28;20065;-83
2022/10/13 04:34:56;;;;;;;31.13;19.83;;;13.20;99.90;;;;;;5113330;28;20019;-83
2022/10/13 04:37:23;;;;;;;29.70;20.13;;;13.10;99.90;;;;;;5113474;28;20487;-83
2022/10/13 04:39:48;;;;;;;26.67;18.85;;;13.50;99.90;;;;;;5113330;28;20464;-83
2022/10/13 04:42:14;;;;;;;25.40;19.52;;;13.40;99.90;;;;;;5114060;28;20053;-83
2022/10/13 04:44:40;;;;;;;26.08;19.52;;;13.20;99.90;;;;;;5113212;28;20527;-83
2022/10/13 04:47:05;;;;;;;34.13;19.42;;;13.10;99.90;;;;;;5113710;28;20024;-83
2022/10/13 04:49:31;;;;;;;28.80;19.33;;;13.10;99.90;;;;;;5113228;28;20384;-83
2022/10/13 04:51:57;;;;;;;26.42;19.73;;;13.10;99.90;;;;;;5113074;28;20027;-83
2022/10/13 04:54:23;;;;;;;27.20;19.90;;;13.20;99.90;;;;;;5113182;28;20031;-83
2022/10/13 04:56:48;;;;;;;27.38;19.17;;;13.20;99.90;;;;;;5095586;28;20036;-83
2022/10/13 04:59:14;;;;;;;26.23;19.42;;;13.60;99.90;;;;;;5112582;28;20085;-83
2022/10/13 05:01:40;;;;;;;24.20;18.88;;;13.60;99.90;;;;;;5112916;28;20023;-83
2022/10/13 05:04:06;;;;;;;29.38;19.50;;;13.30;99.90;;;;;;5096672;28;20073;-84
2022/10/13 05:06:35;;;;;;;29.20;19.77;;;13.40;99.90;;;;;;5092875;28;20032;-83
2022/10/13 05:09:01;;;;;;;22.80;18.17;;;13.30;99.90;;;;;;5092450;28;20487;-83
2022/10/13 05:11:27;;;;;;;24.27;19.15;;;13.30;99.90;;;;;;5092365;28;20066;-83
2022/10/13 05:13:54;;;;;;;26.48;19.15;;;13.20;99.90;;;;;;5092472;28;20475;-83
2022/10/13 05:16:21;;;;;;;26.05;19.63;;;13.10;99.90;;;;;;5092534;28;20028;-83
2022/10/13 05:18:48;;;;;;;26.08;19.02;;;13.20;99.90;;;;;;5092469;28;20085;-83
2022/10/13 05:21:18;;;;;;;23.45;18.88;;;13.00;99.90;;;;;;5074674;28;20078;-83
2022/10/13 05:23:44;;;;;;;23.67;18.58;;;13.20;99.90;;;;;;5092346;28;20027;-83
2022/10/13 05:26:12;;;;;;;23.77;18.38;;;13.20;99.90;;;;;;5092630;28;20357;-83
2022/10/13 05:28:39;;;;;;;25.75;19.75;;;13.60;99.90;;;;;;5092245;28;20443;-83
2022/10/13 05:31:24;;;;;;;23.85;18.48;;;13.40;99.90;;;;;;5098332;28;20011;-83
2022/10/13 05:33:50;;;;;;;24.83;19.15;;;13.60;99.90;;;;;;5112474;28;20066;-83
2022/10/13 05:36:22;;;;;;;26.33;18.58;;;13.40;99.90;;;;;;5112418;28;20015;-84
2022/10/13 05:38:53;;;;;;;28.00;19.95;;;13.40;99.90;;;;;;5112225;28;20039;-83
2022/10/13 05:41:19;;;;;;;28.02;19.05;;;13.40;99.90;;;;;;5112385;28;20034;-83
2022/10/13 05:43:45;;;;;;;31.30;20.17;;;13.30;99.90;;;;;;5112440;28;20107;-83
2022/10/13 05:46:11;;;;;;;29.63;19.75;;;13.20;99.90;;;;;;5094252;28;20047;-83
2022/10/13 05:48:37;;;;;;;26.42;18.95;;;13.10;99.90;;;;;;5112216;28;20072;-83
2022/10/13 05:51:13;;;;;;;27.08;18.77;;;13.20;99.90;;;;;;5112439;28;20027;-83
2022/10/13 05:53:42;;;;;;;26.05;19.98;;;13.30;99.90;;;;;;5112828;28;20152;-83
2022/10/13 05:56:14;;;;;;;31.52;21.90;;;13.50;99.90;;;;;;5112067;28;20024;-83
2022/10/13 05:58:44;;;;;;;33.70;20.88;;;13.30;99.90;;;;;;5112272;28;20027;-83
2022/10/13 06:01:14;;;;;;;36.55;21.63;;;13.30;99.90;;;;;;5112236;28;20027;-83
2022/10/13 06:03:41;;;;;;;29.88;20.35;;;13.60;99.90;;;;;;5099247;28;20070;-83
2022/10/13 06:06:08;;;;;;;26.35;20.88;;;13.30;99.90;;;;;;5091933;28;20511;-83
2022/10/13 06:08:34;;;;;;;31.42;20.40;;;13.30;99.90;;;;;;5091800;28;20064;-83
2022/10/13 06:11:02;;;;;;;27.25;20.20;;;13.30;99.90;;;;;;5091637;28;20048;-88
2022/10/13 06:13:27;;;;;;;25.90;20.38;;;13.70;99.90;;;;;;5092152;28;20066;-86
2022/10/13 06:15:53;;;;;;;26.95;19.95;;;13.90;99.90;;;;;;5091853;28;20024;-86
2022/10/13 06:18:18;;;;;;;25.02;19.73;;;13.70;99.90;;;;;;5092128;28;20027;-86
2022/10/13 06:20:44;;;;;;;25.25;20.35;;;14.00;99.90;;;;;;5091784;28;20353;-86
2022/10/13 06:23:10;;;;;;;26.63;19.80;;;13.80;99.90;;;;;;5091685;28;20031;-86
2022/10/13 06:25:35;;;;;;;29.20;19.17;;;14.00;99.90;;;;;;5091603;28;20024;-86
2022/10/13 06:28:01;;;;;;;28.42;19.95;;;14.10;99.90;;;;;;5091624;28;20093;-86
2022/10/13 06:30:27;;;;;;;26.60;21.05;;;14.10;99.90;;;;;;5093222;28;20028;-86
2022/10/13 06:32:56;;;;;;;28.05;21.20;;;13.90;99.90;;;;;;5111957;28;20027;-86
2022/10/13 06:35:22;;;;;;;31.75;21.63;;;14.00;99.90;;;;;;5112044;28;20360;-86
2022/10/13 06:37:48;;;;;;;28.73;21.33;;;14.00;99.90;;;;;;5111967;28;20485;-86
2022/10/13 06:40:14;;;;;;;28.58;21.23;;;14.10;99.90;;;;;;5111802;28;20058;-86
2022/10/13 06:42:40;;;;;;;34.20;21.67;;;14.10;99.90;;;;;;5111944;28;20134;-86
2022/10/13 06:45:06;;;;;;;28.30;21.17;;;14.20;99.90;;;;;;5093909;28;20120;-87
2022/10/13 06:47:32;;;;;;;30.60;21.13;;;14.30;99.90;;;;;;5111569;28;20028;-87
2022/10/13 06:49:57;;;;;;;29.38;21.75;;;14.40;99.90;;;;;;5113561;28;20038;-86
2022/10/13 06:52:23;;;;;;;30.02;21.95;;;14.50;99.90;;;;;;5115583;28;20081;-87
2022/10/13 06:54:48;;;;;;;29.73;22.40;;;14.50;99.90;;;;;;5115311;28;20042;-86
2022/10/13 06:57:14;;;;;;;30.15;20.88;;;14.80;99.90;;;;;;5115500;28;20028;-86
2022/10/13 06:59:40;;;;;;;30.00;21.88;;;14.50;99.90;;;;;;5115857;28;20024;-86
2022/10/13 07:02:06;;;;;;;29.63;20.35;;;14.50;99.90;;;;;;5115181;28;20441;-86
2022/10/13 07:04:31;;;;;;;30.05;20.58;;;14.40;99.90;;;;;;5095224;28;20120;-86
2022/10/13 07:06:57;;;;;;;28.65;21.17;;;14.50;99.90;;;;;;5094871;28;20028;-87
2022/10/13 07:09:22;;;;;;;28.60;20.50;;;14.50;99.90;;;;;;5094734;28;20042;-86
2022/10/13 07:11:49;;;;;;;28.48;20.33;;;14.50;99.90;;;;;;5094701;28;20127;-86
2022/10/13 07:14:15;;;;;;;27.92;20.40;;;14.50;99.90;;;;;;5094812;28;20424;-86
2022/10/13 07:16:40;;;;;;;28.70;21.08;;;14.50;99.90;;;;;;5095092;28;20031;-87
2022/10/13 07:19:06;;;;;;;28.48;20.02;;;14.60;99.90;;;;;;5094613;28;20028;-86
2022/10/13 07:21:32;;;;;;;29.60;20.08;;;14.70;99.90;;;;;;5094609;28;20480;-87
2022/10/13 07:23:57;;;;;;;26.23;19.85;;;14.70;99.90;;;;;;5094234;28;20465;-87
2022/10/13 07:26:23;;;;;;;27.73;20.02;;;14.80;99.90;;;;;;5094484;28;20028;-86
2022/10/13 07:28:49;;;;;;;28.65;20.55;;;14.80;99.90;;;;;;5094356;28;20036;-86
2022/10/13 07:31:17;;;;;;;25.70;19.15;;;15.20;99.90;;;;;;5084071;28;20019;-86
2022/10/13 07:33:45;;;;;;;23.85;19.05;;;14.90;99.90;;;;;;5114684;28;20031;-86
2022/10/13 07:36:12;;;;;;;28.70;18.38;;;15.30;99.90;;;;;;5114851;28;20031;-86
2022/10/13 07:38:38;;;;;;;22.60;18.80;;;14.90;99.90;;;;;;5114765;28;20019;-87
2022/10/13 07:41:06;;;;;;;27.65;19.60;;;14.90;99.90;;;;;;5114602;28;20392;-86
2022/10/13 07:43:32;;;;;;;25.90;19.52;;;15.10;99.90;;;;;;5114620;28;20019;-86
2022/10/13 07:45:58;;;;;;;27.90;19.65;;;14.50;99.90;;;;;;5114413;28;20024;-87
2022/10/13 07:48:25;;;;;;;25.45;19.48;;;14.80;99.90;;;;;;5114620;28;20055;-86
2022/10/13 07:50:51;;;;;;;27.48;18.70;;;14.80;99.90;;;;;;5114450;28;20475;-86
2022/10/13 07:53:16;;;;;;;24.80;19.08;;;15.10;99.90;;;;;;5114099;28;20016;-86
2022/10/13 07:55:42;;;;;;;26.30;19.70;;;14.80;99.90;;;;;;5114441;28;20043;-87
2022/10/13 07:58:08;;;;;;;23.15;18.25;;;15.00;99.90;;;;;;5114424;28;20027;-86
2022/10/13 08:00:33;;;;;;;27.23;19.75;;;15.30;99.90;;;;;;5113862;28;20403;-87
2022/10/13 08:02:59;;;;;;;24.50;19.85;;;15.40;99.90;;;;;;5107412;28;20070;-87
2022/10/13 08:05:25;;;;;;;27.70;20.73;;;15.30;99.90;;;;;;5094212;28;20020;-86
2022/10/13 08:07:50;;;;;;;29.77;20.80;;;15.60;99.90;;;;;;5094289;28;20476;-87
2022/10/13 08:10:16;;;;;;;28.00;20.77;;;15.60;99.90;;;;;;5093502;28;20028;-86
2022/10/13 08:12:42;;;;;;;26.48;20.05;;;15.60;99.90;;;;;;5093725;28;20035;-86
2022/10/13 08:15:08;;;;;;;30.20;21.48;;;15.80;99.90;;;;;;5093439;28;20028;-86
2022/10/13 08:17:33;;;;;;;31.00;22.10;;;15.50;99.90;;;;;;5094033;28;20017;-86
2022/10/13 08:19:59;;;;;;;27.02;20.98;;;15.90;99.90;;;;;;5093557;28;20032;-87
2022/10/13 08:22:26;;;;;;;30.77;20.58;;;16.40;99.90;;;;;;5093031;28;20016;-87
2022/10/13 08:24:51;;;;;;;25.05;19.88;;;17.40;99.90;;;;;;5093328;28;20024;-86
2022/10/13 08:27:23;;;;;;;24.05;19.23;;;19.10;99.90;;;;;;5093392;28;20024;-87
2022/10/13 08:29:50;;;;;;;24.40;19.17;;;18.80;99.90;;;;;;5094459;28;20038;-86
2022/10/13 08:32:15;;;;;;;23.65;18.17;;;18.20;99.90;;;;;;5109255;28;20494;-87
2022/10/13 08:34:41;;;;;;;22.45;18.27;;;18.80;99.90;;;;;;5113577;28;20042;-86
2022/10/13 08:37:18;;;;;;;22.35;16.83;;;20.40;99.40;;;;;;5113991;28;20031;-86
2022/10/13 08:39:44;;;;;;;20.30;17.13;;;22.30;99.90;;;;;;5113735;28;20028;-87
2022/10/13 08:42:18;;;;;;;22.00;16.30;;;22.90;96.20;;;;;;5113232;28;20031;-87
2022/10/13 08:44:54;;;;;;;18.30;15.75;;;22.70;98.10;;;;;;5114110;28;20024;-87
2022/10/13 08:47:25;;;;;;;20.67;15.85;;;23.20;98.40;;;;;;5113359;28;20027;-87
2022/10/13 08:49:55;;;;;;;18.40;15.45;;;23.00;98.20;;;;;;5112933;28;20020;-87
2022/10/13 08:52:27;;;;;;;17.63;15.20;;;22.10;95.00;;;;;;5113755;28;20038;-86
2022/10/13 08:54:54;;;;;;;20.50;17.02;;;20.70;96.00;;;;;;5113288;28;20027;-87
2022/10/13 08:57:21;;;;;;;20.73;15.48;;;19.30;99.90;;;;;;5113248;28;20019;-86
2022/10/13 08:59:48;;;;;;;20.45;16.85;;;18.60;97.70;;;;;;5113518;28;20026;-87
2022/10/13 09:02:22;;;;;;;20.45;16.02;;;18.50;98.90;;;;;;5112305;28;20556;-87
2022/10/13 09:04:51;;;;;;;19.42;16.45;;;18.30;98.80;;;;;;5092518;28;20020;-87
2022/10/13 09:07:27;;;;;;;21.55;16.13;;;17.70;99.40;;;;;;5092671;28;20028;-87
2022/10/13 09:09:54;;;;;;;21.00;16.75;;;17.60;99.90;;;;;;5092502;28;20038;-87
2022/10/13 09:12:23;;;;;;;23.33;17.50;;;17.30;98.90;;;;;;5092349;28;20047;-87
2022/10/13 09:15:10;;;;;;;21.02;16.70;;;17.00;99.90;;;;;;5092528;28;20020;-87
2022/10/13 09:17:38;;;;;;;18.98;15.50;;;17.40;99.90;;;;;;5092474;28;20558;-87
2022/10/13 09:20:18;;;;;;;22.88;16.80;;;17.40;99.90;;;;;;5092199;28;20476;-87
2022/10/13 09:22:58;;;;;;;23.55;16.75;;;17.70;99.90;;;;;;5092495;28;20016;-87
2022/10/13 09:25:24;;;;;;;20.80;16.75;;;18.00;99.90;;;;;;5092413;28;20024;-87
2022/10/13 09:28:07;;;;;;;22.23;16.98;;;17.80;99.60;;;;;;5092666;28;20032;-87
2022/10/13 09:30:39;;;;;;;21.85;17.02;;;18.10;99.90;;;;;;5094107;28;20024;-87
2022/10/13 09:33:08;;;;;;;23.08;16.52;;;18.00;99.70;;;;;;5112580;28;20028;-87
2022/10/13 09:35:39;;;;;;;21.67;16.95;;;18.10;99.60;;;;;;5112894;28;20051;-87
2022/10/13 09:38:14;;;;;;;18.90;16.73;;;18.20;99.90;;;;;;5112492;28;20052;-87
2022/10/13 09:40:41;;;;;;;21.83;16.02;;;18.10;99.90;;;;;;5112657;28;20483;-87
2022/10/13 09:43:27;;;;;;;19.70;15.77;;;18.10;99.90;;;;;;5112472;28;20023;-87
2022/10/13 09:45:53;;;;;;;19.42;15.90;;;18.50;99.90;;;;;;5112705;28;20038;-87
2022/10/13 09:48:24;;;;;;;18.23;15.75;;;18.70;99.90;;;;;;5112393;28;20391;-87
2022/10/13 09:50:52;;;;;;;20.85;15.77;;;18.40;99.90;;;;;;5112468;28;20026;-87
2022/10/13 09:53:23;;;;;;;21.85;16.23;;;18.20;99.90;;;;;;5112392;28;20035;-87
2022/10/13 09:55:49;;;;;;;19.48;15.75;;;18.50;99.90;;;;;;5112250;28;20103;-87
2022/10/13 09:58:32;;;;;;;18.60;15.15;;;19.10;98.80;;;;;;5112409;28;20062;-87
2022/10/13 10:00:59;;;;;;;19.42;15.38;;;19.70;99.90;;;;;;5112465;28;20132;-87
2022/10/13 10:03:37;;;;;;;20.10;15.68;;;19.80;99.90;;;;;;5101417;28;20024;-87
2022/10/13 10:06:06;;;;;;;22.10;15.07;;;20.00;99.90;;;;;;5092192;28;20028;-87
2022/10/13 10:08:53;;;;;;;16.85;14.52;;;20.50;99.90;;;;;;5092586;28;20039;-87
2022/10/13 10:11:27;;;;;;;19.67;14.20;;;22.50;99.70;;;;;;5092066;28;20134;-88
2022/10/13 10:13:54;;;;;;;19.50;15.43;;;23.30;95.80;;;;;;5091861;28;20040;-87
2022/10/13 10:16:54;;;;;;;17.42;14.52;;;21.70;92.70;;;;;;5091835;28;20093;-86
2022/10/13 10:19:42;;;;;;;19.63;16.45;;;22.20;97.40;;;;;;5073973;28;20043;-87
2022/10/13 10:22:49;;;;;;;21.35;16.85;;;25.80;95.40;;;;;;5091860;28;20024;-87
2022/10/13 10:25:24;;;;;;;20.05;17.65;;;23.50;93.30;;;;;;4993333;28;20042;-87
2022/10/13 10:28:08;;;;;;;20.92;18.27;;;20.90;94.10;;;;;;4994240;28;20157;-87
2022/10/13 10:30:50;;;;;;;19.92;17.88;;;20.10;96.40;;;;;;4995575;28;20035;-87
2022/10/13 10:33:22;;;;;;;19.90;17.60;;;20.20;96.50;;;;;;5013102;28;20413;-87
2022/10/13 10:35:47;;;;;;;19.83;17.23;;;21.00;96.20;;;;;;5013989;28;20125;-87
2022/10/13 10:38:31;;;;;;;19.73;16.77;;;22.50;94.60;;;;;;5013176;28;20033;-87
2022/10/13 10:41:11;;;;;;;17.85;15.48;;;24.00;94.00;;;;;;4997279;28;20554;-87
2022/10/13 10:43:54;;;;;;;20.00;15.57;;;29.80;92.80;;;;;;5013245;28;20044;-87
2022/10/13 10:46:26;;;;;;;18.75;14.93;;;33.50;82.60;;;;;;5013201;28;20102;-87
2022/10/13 10:48:59;;;;;;;16.77;15.05;;;35.30;81.50;;;;;;5013041;28;20053;-87
2022/10/13 10:51:34;;;;;;;17.00;15.30;;;33.30;72.40;;;;;;5013126;28;20026;-87
2022/10/13 10:54:17;;;;;;;16.35;14.40;;;32.40;72.60;;;;;;5012931;28;20065;-85
2022/10/13 10:56:48;;;;;;;18.58;14.98;;;33.10;68.60;;;;;;5013161;28;20030;-85
2022/10/13 10:59:16;;;;;;;16.02;13.95;;;30.00;68.80;;;;;;5012908;28;20040;-85
2022/10/13 11:02:13;;;;;;;16.63;14.45;;;29.10;69.70;;;;;;5053420;28;20121;-85
2022/10/13 11:04:43;;;;;;;15.50;13.90;;;28.00;68.80;;;;;;5095481;28;20039;-85
2022/10/13 11:07:23;;;;;;;17.20;15.48;;;26.60;71.00;;;;;;5094770;28;20020;-85
2022/10/13 11:09:49;;;;;;;16.17;14.57;;;26.00;71.40;;;;;;5094654;28;20047;-84
2022/10/13 11:12:20;;;;;;;16.70;14.90;;;24.80;72.00;;;;;;5094731;28;20032;-86
2022/10/13 11:14:46;;;;;;;16.98;14.05;;;24.40;73.10;;;;;;5094873;28;20028;-87
2022/10/13 11:17:18;;;;;;;15.98;14.30;;;23.60;71.50;;;;;;5094633;28;20035;-87
2022/10/13 11:19:46;;;;;;;16.73;15.00;;;23.80;72.90;;;;;;5094925;28;20024;-87
2022/10/13 11:22:17;;;;;;;15.32;11.80;;;23.90;73.20;;;;;;5094867;28;20020;-87
2022/10/13 11:24:54;;;;;;;15.63;11.32;;;23.60;91.50;;;;;;5094821;28;20024;-87
2022/10/13 11:27:33;;;;;;;15.90;12.48;;;23.80;92.30;;;;;;5094584;28;20031;-86
2022/10/13 11:30:00;;;;;;;14.10;10.82;;;23.20;76.90;;;;;;5094177;28;20036;-87
2022/10/13 11:35:09;;;;;;;15.73;13.23;;;23.40;75.70;;;;;;5114499;28;20036;-87
2022/10/13 11:37:48;;;;;;;15.98;12.30;;;21.90;77.00;;;;;;5114717;28;20054;-87
2022/10/13 11:40:32;;;;;;;15.77;12.20;;;22.10;80.30;;;;;;5115166;28;20033;-87
2022/10/13 11:43:24;;;;;;;14.63;10.30;;;22.40;80.30;;;;;;5114410;28;20077;-87
2022/10/13 11:46:03;;;;;;;10.57;9.35;;;21.60;78.90;;;;;;5114042;28;20028;-87
2022/10/13 11:48:49;;;;;;;12.75;9.70;;;22.50;80.50;;;;;;5114608;28;20073;-87
2022/10/13 11:51:37;;;;;;;10.63;9.10;;;22.60;78.20;;;;;;5114587;28;20030;-87
2022/10/13 11:54:40;;;;;;;12.10;9.43;;;22.00;79.20;;;;;;5114749;28;20429;-86
2022/10/13 11:57:32;;;;;;;12.93;10.45;;;22.60;80.50;;;;;;5114093;28;20114;-86
2022/10/13 11:59:57;;;;;;;12.13;10.70;;;22.60;73.00;;;;;;5110929;28;20024;-86
2022/10/13 12:02:25;;;;;;;16.02;10.77;;;22.00;71.40;;;;;;5112242;28;20411;-87
2022/10/13 12:05:05;;;;;;;12.82;10.10;;;22.40;77.70;;;;;;5094255;28;20022;-87
2022/10/13 12:07:34;;;;;;;14.48;11.20;;;22.50;77.40;;;;;;5093865;28;20447;-86
2022/10/13 12:10:05;;;;;;;12.82;10.70;;;22.20;77.50;;;;;;5093675;28;20246;-87
2022/10/13 12:12:30;;;;;;;17.95;10.15;;;21.40;79.90;;;;;;5093493;28;20035;-87
2022/10/13 12:14:57;;;;;;;13.73;9.80;;;21.50;71.10;;;;;;5093732;28;20020;-87
2022/10/13 12:17:25;;;;;;;11.73;9.95;;;21.60;80.00;;;;;;5093596;28;20063;-86
2022/10/13 12:19:57;;;;;;;14.10;9.73;;;22.10;81.80;;;;;;5093403;28;20030;-87
2022/10/13 12:22:23;;;;;;;14.43;9.30;;;22.10;76.90;;;;;;5093374;28;20016;-87
2022/10/13 12:25:04;;;;;;;9.93;8.68;;;21.90;77.30;;;;;;5093440;28;20024;-87
2022/10/13 12:27:39;;;;;;;13.15;8.35;;;21.80;80.60;;;;;;5093211;28;20032;-87
2022/10/13 12:30:21;;;;;;;12.02;9.55;;;22.00;78.60;;;;;;5093647;28;20063;-87
2022/10/13 12:32:51;;;;;;;13.68;9.13;;;21.90;78.40;;;;;;5094113;28;20024;-86
2022/10/13 12:35:24;;;;;;;12.82;9.63;;;22.00;78.80;;;;;;5093320;28;20016;-87
2022/10/13 12:37:51;;;;;;;11.70;9.38;;;22.30;77.90;;;;;;5093298;28;20487;-87
2022/10/13 12:40:18;;;;;;;11.20;8.70;;;22.30;78.20;;;;;;5074809;28;20028;-87
2022/10/13 12:42:45;;;;;;;11.35;8.88;;;22.30;77.50;;;;;;5093227;28;20189;-86
2022/10/13 12:45:22;;;;;;;11.20;8.32;;;22.30;72.60;;;;;;5092722;28;20026;-86